Time;durP1;ratioP1;P1;durP2;ratioP2;P2;SDS_P1;SDS_P2;PMS_P1;PMS_P2;Temp;Humidity;BMP_temperature;BMP_pressure;BME280_temperature;BME280_humidity;BME280_pressure;Samples;Min_cycle;Max_cycle;Signal;HPM_P1;HPM_P2
2022/04/06 00:01:01;;;;;;;0.20;0.20;;;;;;;;;;4954587;28;20313;-69
2022/04/06 00:03:29;;;;;;;1.20;1.10;;;;;;;;;;4954761;28;20571;-68
2022/04/06 00:05:58;;;;;;;0.30;0.30;;;;;;;;;;4953179;28;20554;-67
2022/04/06 00:08:26;;;;;;;0.37;0.37;;;;;;;;;;4952517;28;20661;-67
2022/04/06 00:10:53;;;;;;;0.30;0.30;;;;;;;;;;4954304;28;20203;-68
2022/04/06 00:13:21;;;;;;;0.10;0.10;;;;;;;;;;4954082;28;20755;-68
2022/04/06 00:15:48;;;;;;;0.83;0.83;;;;;;;;;;4953943;28;20668;-67
2022/04/06 00:18:16;;;;;;;0.70;0.70;;;;;;;;;;4952050;28;20567;-67
2022/04/06 00:20:43;;;;;;;0.20;0.20;;;;;;;;;;4954101;28;20234;-67
2022/04/06 00:23:14;;;;;;;0.50;0.50;;;;;;;;;;4954193;28;20199;-68
2022/04/06 00:25:41;;;;;;;2.17;2.00;;;;;;;;;;4953623;28;20207;-68
2022/04/06 00:28:09;;;;;;;0.40;0.40;;;;;;;;;;4952199;28;20207;-68
2022/04/06 00:30:36;;;;;;;0.00;0.00;;;;;;;;;;4947455;28;20641;-68
2022/04/06 00:33:04;;;;;;;1.50;0.77;;;;;;;;;;4953000;28;20207;-68
2022/04/06 00:35:32;;;;;;;3.70;1.23;;;;;;;;;;4953921;28;20203;-67
2022/04/06 00:38:00;;;;;;;0.67;0.57;;;;;;;;;;4951993;28;20575;-68
2022/04/06 00:40:29;;;;;;;0.63;0.57;;;;;;;;;;4953501;28;20230;-68
2022/04/06 00:42:57;;;;;;;0.73;0.70;;;;;;;;;;4953739;28;20306;-69
2022/04/06 00:45:24;;;;;;;0.73;0.10;;;;;;;;;;4953807;28;20286;-68
2022/04/06 00:47:53;;;;;;;0.10;0.10;;;;;;;;;;4951950;28;20210;-68
2022/04/06 00:50:21;;;;;;;0.70;0.20;;;;;;;;;;4953832;28;20293;-68
2022/04/06 00:52:49;;;;;;;0.20;0.20;;;;;;;;;;4953448;28;20313;-67
2022/04/06 00:55:17;;;;;;;0.10;0.10;;;;;;;;;;4953552;28;20199;-67
2022/04/06 00:57:46;;;;;;;0.20;0.20;;;;;;;;;;4950947;28;20539;-68
2022/04/06 01:00:15;;;;;;;0.30;0.30;;;;;;;;;;4952767;28;20258;-68
2022/04/06 01:02:42;;;;;;;1.70;1.60;;;;;;;;;;4934367;29;20557;-68
2022/04/06 01:05:10;;;;;;;2.80;0.53;;;;;;;;;;4951603;29;20591;-68
2022/04/06 01:07:38;;;;;;;0.00;0.00;;;;;;;;;;4950993;28;20266;-68
2022/04/06 01:10:05;;;;;;;0.10;0.10;;;;;;;;;;4953856;28;20207;-68
2022/04/06 01:12:38;;;;;;;0.13;0.13;;;;;;;;;;4952914;28;20207;-67
2022/04/06 01:15:08;;;;;;;3.63;0.67;;;;;;;;;;4953335;28;20207;-67
2022/04/06 01:17:37;;;;;;;0.20;0.20;;;;;;;;;;4950908;28;20214;-68
2022/04/06 01:20:07;;;;;;;0.37;0.33;;;;;;;;;;4951960;28;20596;-69
2022/04/06 01:22:36;;;;;;;1.03;0.70;;;;;;;;;;4953297;28;20213;-68
2022/04/06 01:25:05;;;;;;;0.17;0.17;;;;;;;;;;4953370;28;20286;-68
2022/04/06 01:27:32;;;;;;;0.73;0.43;;;;;;;;;;4951733;28;20199;-67
2022/04/06 01:29:59;;;;;;;0.40;0.20;;;;;;;;;;4942162;28;20697;-67
2022/04/06 01:32:30;;;;;;;0.77;0.50;;;;;;;;;;4937801;29;20294;-67
2022/04/06 01:34:57;;;;;;;0.67;0.67;;;;;;;;;;4938136;29;20196;-68
2022/04/06 01:37:25;;;;;;;2.53;1.37;;;;;;;;;;4953316;28;20377;-68
2022/04/06 01:39:54;;;;;;;2.00;0.73;;;;;;;;;;4954765;28;20593;-68
2022/04/06 01:42:22;;;;;;;3.20;0.13;;;;;;;;;;4956847;28;20672;-68
2022/04/06 01:44:50;;;;;;;0.10;0.10;;;;;;;;;;4956813;28;20769;-68
2022/04/06 01:47:18;;;;;;;0.00;0.00;;;;;;;;;;4955906;28;20218;-67
2022/04/06 01:52:31;;;;;;;0.20;0.20;;;;;;;;;;4956981;29;20809;-68
2022/04/06 01:55:02;;;;;;;3.10;0.20;;;;;;;;;;4954411;28;20195;-69
2022/04/06 01:57:29;;;;;;;0.00;0.00;;;;;;;;;;4956597;28;20199;-68
2022/04/06 01:59:57;;;;;;;0.20;0.20;;;;;;;;;;4956651;29;20597;-68
2022/04/06 02:02:26;;;;;;;4.73;0.80;;;;;;;;;;4955846;28;20213;-68
2022/04/06 02:04:53;;;;;;;0.33;0.20;;;;;;;;;;4955446;28;20575;-69
2022/04/06 02:07:21;;;;;;;1.67;0.60;;;;;;;;;;4955700;29;20342;-68
2022/04/06 02:09:48;;;;;;;0.30;0.20;;;;;;;;;;4956136;28;20732;-68
2022/04/06 02:12:17;;;;;;;0.33;0.33;;;;;;;;;;4956319;28;20234;-68
2022/04/06 02:14:44;;;;;;;0.40;0.30;;;;;;;;;;4955553;28;20203;-69
2022/04/06 02:17:12;;;;;;;0.10;0.10;;;;;;;;;;4955794;28;20203;-68
2022/04/06 02:19:40;;;;;;;0.10;0.10;;;;;;;;;;4956281;28;20235;-68
2022/04/06 02:22:08;;;;;;;0.60;0.20;;;;;;;;;;4956223;28;20211;-68
2022/04/06 02:24:36;;;;;;;0.27;0.27;;;;;;;;;;4954529;28;20672;-68
2022/04/06 02:27:06;;;;;;;1.40;0.20;;;;;;;;;;4955481;28;20235;-68
2022/04/06 02:29:35;;;;;;;0.47;0.47;;;;;;;;;;4955671;28;20213;-68
2022/04/06 02:32:02;;;;;;;2.80;0.90;;;;;;;;;;4957657;28;20202;-68
2022/04/06 02:34:30;;;;;;;0.67;0.20;;;;;;;;;;4955756;28;20205;-68
2022/04/06 02:36:57;;;;;;;4.70;0.67;;;;;;;;;;4954871;28;20622;-68
2022/04/06 02:39:25;;;;;;;1.77;1.67;;;;;;;;;;4955975;28;20205;-67
2022/04/06 02:41:53;;;;;;;2.33;1.10;;;;;;;;;;4954971;28;20286;-67
2022/04/06 02:44:20;;;;;;;0.20;0.20;;;;;;;;;;4956163;28;20199;-67
2022/04/06 02:46:49;;;;;;;0.20;0.20;;;;;;;;;;4954505;28;20207;-67
2022/04/06 02:49:17;;;;;;;0.53;0.53;;;;;;;;;;4955687;28;20298;-67
2022/04/06 02:51:45;;;;;;;0.50;0.50;;;;;;;;;;4954536;28;20664;-68
2022/04/06 02:54:13;;;;;;;0.60;0.60;;;;;;;;;;4955863;28;20282;-68
2022/04/06 02:56:41;;;;;;;0.33;0.30;;;;;;;;;;4954116;28;20638;-69
2022/04/06 02:59:08;;;;;;;0.80;0.80;;;;;;;;;;4955603;28;20285;-68
2022/04/06 03:01:35;;;;;;;1.53;1.43;;;;;;;;;;4955172;28;20711;-68
2022/04/06 03:04:04;;;;;;;2.50;1.07;;;;;;;;;;4955635;28;20246;-68
2022/04/06 03:06:31;;;;;;;0.83;0.63;;;;;;;;;;4953915;28;20250;-68
2022/04/06 03:08:59;;;;;;;1.20;0.70;;;;;;;;;;4955557;28;20203;-68
2022/04/06 03:11:26;;;;;;;0.50;0.50;;;;;;;;;;4955435;28;20237;-68
2022/04/06 03:13:54;;;;;;;0.20;0.20;;;;;;;;;;4955419;28;20238;-68
2022/04/06 03:16:21;;;;;;;1.30;0.93;;;;;;;;;;4950537;28;20254;-68
2022/04/06 03:18:49;;;;;;;0.63;0.63;;;;;;;;;;4954212;28;20210;-67
2022/04/06 03:21:18;;;;;;;0.30;0.30;;;;;;;;;;4936208;29;20235;-68
2022/04/06 03:23:45;;;;;;;3.20;1.20;;;;;;;;;;4935569;29;20662;-67
2022/04/06 03:26:13;;;;;;;0.40;0.40;;;;;;;;;;4948164;29;20225;-67
2022/04/06 03:28:41;;;;;;;0.30;0.30;;;;;;;;;;4955000;28;20306;-68
2022/04/06 03:31:08;;;;;;;2.40;1.20;;;;;;;;;;4954904;28;20199;-68
2022/04/06 03:33:36;;;;;;;3.63;1.53;;;;;;;;;;4955132;28;20234;-67
2022/04/06 03:36:03;;;;;;;1.13;0.50;;;;;;;;;;4952970;28;20245;-68
2022/04/06 03:38:33;;;;;;;1.33;0.90;;;;;;;;;;4955249;28;20297;-68
2022/04/06 03:41:00;;;;;;;0.93;0.93;;;;;;;;;;4955183;28;20226;-68
2022/04/06 03:43:28;;;;;;;11.03;1.23;;;;;;;;;;4954807;28;20199;-68
2022/04/06 03:45:56;;;;;;;3.87;0.70;;;;;;;;;;4951940;28;20664;-69
2022/04/06 03:48:23;;;;;;;1.80;1.70;;;;;;;;;;4953914;28;20529;-68
2022/04/06 03:50:51;;;;;;;6.17;2.43;;;;;;;;;;4954807;28;20226;-68
2022/04/06 03:53:19;;;;;;;3.10;1.07;;;;;;;;;;4953781;28;20203;-68
2022/04/06 03:55:48;;;;;;;3.77;0.93;;;;;;;;;;4952754;28;20207;-68
2022/04/06 03:58:16;;;;;;;0.20;0.20;;;;;;;;;;4954726;28;20203;-68
2022/04/06 04:00:44;;;;;;;10.67;1.10;;;;;;;;;;4954026;28;20597;-68
2022/04/06 04:03:11;;;;;;;0.50;0.50;;;;;;;;;;4954607;28;20206;-68
2022/04/06 04:05:39;;;;;;;4.00;0.90;;;;;;;;;;4952767;28;20203;-68
2022/04/06 04:08:06;;;;;;;0.23;0.23;;;;;;;;;;4954217;28;20862;-68
2022/04/06 04:10:34;;;;;;;1.27;1.17;;;;;;;;;;4954190;28;20199;-66
2022/04/06 04:13:03;;;;;;;1.17;0.90;;;;;;;;;;4953341;28;20687;-68
2022/04/06 04:15:31;;;;;;;5.73;1.17;;;;;;;;;;4951873;28;20210;-69
2022/04/06 04:17:58;;;;;;;3.83;1.23;;;;;;;;;;4952837;28;20265;-68
2022/04/06 04:20:26;;;;;;;1.37;0.73;;;;;;;;;;4954059;28;20234;-67
2022/04/06 04:22:53;;;;;;;1.63;1.03;;;;;;;;;;4953373;28;20203;-67
2022/04/06 04:25:21;;;;;;;21.03;0.87;;;;;;;;;;4952501;28;20199;-68
2022/04/06 04:27:48;;;;;;;0.13;0.10;;;;;;;;;;4953976;28;20286;-68
2022/04/06 04:30:17;;;;;;;0.20;0.20;;;;;;;;;;4954115;28;20202;-67
2022/04/06 04:32:45;;;;;;;8.23;0.70;;;;;;;;;;4954030;28;20199;-68
2022/04/06 04:35:12;;;;;;;0.70;0.30;;;;;;;;;;4952488;28;20206;-67
2022/04/06 04:37:40;;;;;;;0.67;0.40;;;;;;;;;;4953669;28;20201;-67
2022/04/06 04:40:09;;;;;;;0.33;0.33;;;;;;;;;;4953831;28;20199;-68
2022/04/06 04:42:36;;;;;;;0.10;0.10;;;;;;;;;;4952591;28;20213;-68
2022/04/06 04:45:05;;;;;;;0.33;0.33;;;;;;;;;;4953063;28;20562;-67
2022/04/06 04:47:33;;;;;;;0.10;0.10;;;;;;;;;;4953962;28;20683;-68
2022/04/06 04:50:01;;;;;;;0.30;0.30;;;;;;;;;;4953526;28;20835;-68
2022/04/06 04:52:28;;;;;;;0.30;0.30;;;;;;;;;;4952906;28;20246;-67
2022/04/06 04:54:56;;;;;;;0.47;0.30;;;;;;;;;;4952797;28;20195;-68
2022/04/06 04:57:23;;;;;;;3.60;1.30;;;;;;;;;;4938806;28;20681;-68
2022/04/06 04:59:52;;;;;;;0.33;0.33;;;;;;;;;;4949989;28;20676;-67
2022/04/06 05:02:20;;;;;;;0.73;0.70;;;;;;;;;;4952400;28;20329;-67
2022/04/06 05:04:48;;;;;;;0.30;0.30;;;;;;;;;;4953239;28;20203;-67
2022/04/06 05:07:16;;;;;;;0.63;0.50;;;;;;;;;;4953507;28;20241;-67
2022/04/06 05:09:43;;;;;;;2.87;0.60;;;;;;;;;;4951488;28;20239;-67
2022/04/06 05:12:11;;;;;;;0.27;0.27;;;;;;;;;;4952647;28;20623;-67
2022/04/06 05:14:38;;;;;;;0.40;0.40;;;;;;;;;;4953586;28;20562;-67
2022/04/06 05:17:06;;;;;;;0.10;0.10;;;;;;;;;;4953406;28;20206;-67
2022/04/06 05:19:33;;;;;;;0.67;0.20;;;;;;;;;;4952071;28;20213;-67
2022/04/06 05:22:03;;;;;;;0.17;0.17;;;;;;;;;;4951611;28;20238;-67
2022/04/06 05:24:31;;;;;;;0.97;0.47;;;;;;;;;;4953585;28;20207;-67
2022/04/06 05:27:00;;;;;;;2.10;0.53;;;;;;;;;;4952520;28;20211;-67
2022/04/06 05:29:27;;;;;;;0.10;0.10;;;;;;;;;;4951891;28;20210;-67
2022/04/06 05:31:55;;;;;;;1.30;0.13;;;;;;;;;;4952597;28;20207;-67
2022/04/06 05:34:22;;;;;;;0.10;0.10;;;;;;;;;;4952700;28;20214;-67
2022/04/06 05:36:49;;;;;;;0.70;0.70;;;;;;;;;;4953580;28;20195;-67
2022/04/06 05:39:18;;;;;;;0.63;0.63;;;;;;;;;;4951742;29;20210;-67
2022/04/06 05:41:46;;;;;;;0.63;0.40;;;;;;;;;;4952002;28;20227;-67
2022/04/06 05:44:13;;;;;;;2.37;0.53;;;;;;;;;;4953108;28;20206;-67
2022/04/06 05:46:41;;;;;;;0.57;0.43;;;;;;;;;;4952980;28;20203;-68
2022/04/06 05:49:08;;;;;;;0.00;0.00;;;;;;;;;;4953607;28;20205;-67
2022/04/06 05:51:36;;;;;;;0.13;0.13;;;;;;;;;;4952268;28;20302;-68
2022/04/06 05:54:03;;;;;;;1.20;0.20;;;;;;;;;;4953041;28;20668;-68
2022/04/06 05:56:32;;;;;;;2.43;0.37;;;;;;;;;;4953068;28;20209;-67
2022/04/06 05:59:00;;;;;;;0.00;0.00;;;;;;;;;;4945800;29;20211;-69
2022/04/06 06:01:27;;;;;;;0.00;0.00;;;;;;;;;;4950772;28;20242;-68
2022/04/06 06:03:55;;;;;;;0.03;0.03;;;;;;;;;;4952698;28;20199;-68
2022/04/06 06:06:22;;;;;;;1.17;0.83;;;;;;;;;;4952007;28;20265;-67
2022/04/06 06:08:49;;;;;;;1.70;1.03;;;;;;;;;;4952806;28;20203;-67
2022/04/06 06:11:17;;;;;;;0.87;0.63;;;;;;;;;;4952157;28;20324;-67
2022/04/06 06:13:46;;;;;;;0.57;0.57;;;;;;;;;;4952452;28;20199;-67
2022/04/06 06:16:13;;;;;;;0.40;0.40;;;;;;;;;;4954176;28;20195;-67
2022/04/06 06:18:40;;;;;;;0.30;0.30;;;;;;;;;;4956348;28;20697;-67
2022/04/06 06:21:08;;;;;;;2.10;2.00;;;;;;;;;;4954427;28;20313;-67
2022/04/06 06:23:35;;;;;;;1.70;0.63;;;;;;;;;;4954729;28;20214;-67
2022/04/06 06:26:03;;;;;;;0.27;0.27;;;;;;;;;;4956140;28;20206;-68
2022/04/06 06:28:31;;;;;;;0.50;0.43;;;;;;;;;;4955657;28;20724;-67
2022/04/06 06:31:00;;;;;;;0.87;0.57;;;;;;;;;;4955528;28;20214;-67
2022/04/06 06:33:27;;;;;;;8.50;2.27;;;;;;;;;;4955875;28;20199;-67
2022/04/06 06:35:54;;;;;;;0.10;0.10;;;;;;;;;;4956231;28;20269;-67
2022/04/06 06:38:22;;;;;;;0.83;0.30;;;;;;;;;;4955749;28;20571;-67
2022/04/06 06:40:49;;;;;;;1.93;0.20;;;;;;;;;;4955015;28;20199;-68
2022/04/06 06:43:17;;;;;;;0.47;0.37;;;;;;;;;;4955105;28;20680;-67
2022/04/06 06:45:44;;;;;;;1.63;0.47;;;;;;;;;;4955725;28;20221;-67
2022/04/06 06:48:13;;;;;;;0.30;0.30;;;;;;;;;;4955889;28;20302;-67
2022/04/06 06:50:41;;;;;;;2.80;0.77;;;;;;;;;;4954966;28;20195;-68
2022/04/06 06:53:09;;;;;;;0.27;0.20;;;;;;;;;;4955582;28;20293;-68
2022/04/06 06:55:37;;;;;;;0.57;0.37;;;;;;;;;;4955550;28;20210;-67
2022/04/06 06:58:04;;;;;;;0.60;0.60;;;;;;;;;;4954784;28;20207;-68
2022/04/06 07:00:32;;;;;;;0.73;0.73;;;;;;;;;;4954998;28;20199;-69
2022/04/06 07:03:00;;;;;;;1.07;0.77;;;;;;;;;;4954644;28;20238;-67
2022/04/06 07:05:29;;;;;;;1.60;1.13;;;;;;;;;;4947538;28;20208;-68
2022/04/06 07:07:57;;;;;;;0.00;0.00;;;;;;;;;;4954487;28;20596;-67
2022/04/06 07:10:26;;;;;;;0.30;0.30;;;;;;;;;;4955188;28;20236;-68
2022/04/06 07:12:54;;;;;;;2.87;0.60;;;;;;;;;;4954528;28;20200;-68
2022/04/06 07:15:22;;;;;;;1.10;0.60;;;;;;;;;;4954478;28;20205;-67
2022/04/06 07:17:52;;;;;;;0.40;0.30;;;;;;;;;;4935868;29;20767;-69
2022/04/06 07:20:20;;;;;;;2.93;0.73;;;;;;;;;;4948755;28;20639;-67
2022/04/06 07:22:50;;;;;;;0.83;0.67;;;;;;;;;;4949981;28;20707;-68
2022/04/06 07:25:18;;;;;;;0.40;0.40;;;;;;;;;;4945685;28;20215;-68
2022/04/06 07:27:45;;;;;;;4.83;0.30;;;;;;;;;;4940850;28;20210;-68
2022/04/06 07:30:13;;;;;;;0.73;0.40;;;;;;;;;;4939902;28;20640;-68
2022/04/06 07:32:41;;;;;;;0.37;0.33;;;;;;;;;;4944877;29;20206;-68
2022/04/06 07:35:09;;;;;;;0.73;0.57;;;;;;;;;;4944171;29;20583;-70
2022/04/06 07:37:37;;;;;;;7.20;2.00;;;;;;;;;;4943447;29;20207;-68
2022/04/06 07:40:07;;;;;;;1.03;0.93;;;;;;;;;;4946790;28;20206;-69
2022/04/06 07:42:35;;;;;;;0.57;0.40;;;;;;;;;;4945284;28;20286;-68
2022/04/06 07:45:03;;;;;;;4.43;1.60;;;;;;;;;;4945364;29;20202;-68
2022/04/06 07:47:31;;;;;;;0.20;0.07;;;;;;;;;;4945292;29;20211;-70
2022/04/06 07:50:00;;;;;;;1.00;0.13;;;;;;;;;;4939856;29;20200;-74
2022/04/06 07:52:28;;;;;;;1.50;0.60;;;;;;;;;;4945199;28;20215;-71
2022/04/06 07:54:55;;;;;;;0.73;0.20;;;;;;;;;;4941685;28;20211;-70
2022/04/06 07:57:25;;;;;;;0.53;0.53;;;;;;;;;;4942647;28;20206;-69
2022/04/06 07:59:53;;;;;;;0.00;0.00;;;;;;;;;;4946002;29;20634;-69
2022/04/06 08:02:20;;;;;;;0.30;0.30;;;;;;;;;;4944499;28;20226;-70
2022/04/06 08:04:48;;;;;;;1.57;0.70;;;;;;;;;;4949832;28;20226;-71
2022/04/06 08:07:15;;;;;;;5.33;1.20;;;;;;;;;;4944398;28;20628;-71
2022/04/06 08:09:43;;;;;;;4.23;0.80;;;;;;;;;;4942237;28;20207;-71
2022/04/06 08:12:10;;;;;;;3.40;0.73;;;;;;;;;;4938010;28;20673;-71
2022/04/06 08:14:39;;;;;;;0.77;0.77;;;;;;;;;;4947034;28;20203;-71
2022/04/06 08:17:07;;;;;;;2.00;0.77;;;;;;;;;;4946065;28;20204;-70
2022/04/06 08:19:36;;;;;;;0.33;0.33;;;;;;;;;;4941420;28;20510;-70
2022/04/06 08:22:03;;;;;;;0.77;0.77;;;;;;;;;;4942081;29;20231;-69
2022/04/06 08:24:31;;;;;;;1.23;0.37;;;;;;;;;;4942613;29;20207;-67
2022/04/06 08:26:58;;;;;;;0.27;0.27;;;;;;;;;;4943231;28;20556;-69
2022/04/06 08:29:26;;;;;;;0.50;0.27;;;;;;;;;;4941139;28;20200;-69
2022/04/06 08:31:55;;;;;;;1.20;0.83;;;;;;;;;;4943196;28;20203;-68
2022/04/06 08:34:23;;;;;;;0.13;0.13;;;;;;;;;;4943896;29;20290;-68
2022/04/06 08:36:50;;;;;;;0.50;0.40;;;;;;;;;;4941176;28;20262;-68
2022/04/06 08:39:18;;;;;;;0.00;0.00;;;;;;;;;;4941826;28;20215;-69
2022/04/06 08:41:45;;;;;;;0.20;0.20;;;;;;;;;;4943464;29;20233;-69
2022/04/06 08:57:15;;;;;;;3.73;1.13;;;;;;;;;;5707440;23;20496;-68
2022/04/06 08:59:42;;;;;;;0.20;0.20;;;;;;;;;;4969299;28;20209;-68
2022/04/06 09:02:11;;;;;;;1.70;1.13;;;;;;;;;;4969184;28;20622;-70
2022/04/06 09:04:40;;;;;;;3.10;1.50;;;;;;;;;;4970332;28;20207;-70
2022/04/06 09:07:09;;;;;;;8.60;0.57;;;;;;;;;;4970752;28;20265;-69
2022/04/06 09:09:37;;;;;;;1.40;0.30;;;;;;;;;;4962648;28;20202;-70
2022/04/06 09:12:08;;;;;;;0.47;0.47;;;;;;;;;;4966073;28;20209;-70
2022/04/06 09:14:37;;;;;;;0.80;0.80;;;;;;;;;;4970767;28;20582;-69
2022/04/06 09:17:05;;;;;;;3.80;0.93;;;;;;;;;;4968711;28;20244;-69
2022/04/06 09:19:33;;;;;;;0.10;0.10;;;;;;;;;;4965093;28;20245;-73
2022/04/06 09:22:00;;;;;;;0.40;0.40;;;;;;;;;;4964720;28;20232;-69
2022/04/06 09:24:28;;;;;;;1.60;0.50;;;;;;;;;;4986169;28;20278;-70
2022/04/06 09:26:59;;;;;;;1.00;1.00;;;;;;;;;;4973146;28;20249;-68
2022/04/06 09:29:26;;;;;;;0.17;0.17;;;;;;;;;;4969943;28;20578;-68
2022/04/06 09:31:56;;;;;;;0.70;0.70;;;;;;;;;;4969946;28;20302;-68
2022/04/06 09:34:24;;;;;;;1.03;0.23;;;;;;;;;;4972389;28;20697;-68
2022/04/06 09:36:56;;;;;;;0.70;0.30;;;;;;;;;;4969959;28;20552;-68
2022/04/06 09:39:38;;;;;;;4.43;0.50;;;;;;;;;;4964357;28;20687;-69
2022/04/06 09:42:06;;;;;;;0.40;0.40;;;;;;;;;;4968525;28;20241;-69
2022/04/06 09:50:12;;;;;;;1.30;0.67;;;;;;;;;;4965170;28;20713;-72
2022/04/06 09:52:39;;;;;;;0.43;0.43;;;;;;;;;;4974293;28;20202;-69
2022/04/06 09:55:08;;;;;;;2.00;0.73;;;;;;;;;;4971826;28;20206;-68
2022/04/06 09:57:40;;;;;;;7.23;1.13;;;;;;;;;;4974359;28;20238;-68
2022/04/06 10:00:08;;;;;;;0.67;0.50;;;;;;;;;;4972539;28;20210;-68
2022/04/06 10:02:38;;;;;;;0.33;0.33;;;;;;;;;;4972639;28;20265;-68
2022/04/06 10:05:06;;;;;;;1.70;0.23;;;;;;;;;;4968765;28;20230;-69
2022/04/06 10:07:35;;;;;;;2.37;1.70;;;;;;;;;;4974187;28;20202;-70
2022/04/06 10:10:02;;;;;;;0.67;0.67;;;;;;;;;;4967997;28;20209;-69
2022/04/06 10:12:30;;;;;;;1.30;0.83;;;;;;;;;;4974723;28;20214;-70
2022/04/06 10:15:01;;;;;;;1.30;0.87;;;;;;;;;;4970798;28;20608;-76
2022/04/06 10:17:29;;;;;;;1.93;0.50;;;;;;;;;;4974858;28;20213;-68
2022/04/06 10:20:03;;;;;;;0.30;0.30;;;;;;;;;;4966919;28;20207;-71
2022/04/06 10:22:33;;;;;;;2.07;0.87;;;;;;;;;;4966358;28;20234;-69
2022/04/06 10:25:03;;;;;;;1.90;1.80;;;;;;;;;;4964912;28;20686;-68
2022/04/06 10:27:34;;;;;;;2.10;1.33;;;;;;;;;;4968949;28;20587;-69
2022/04/06 10:30:16;;;;;;;0.40;0.40;;;;;;;;;;4969760;28;20694;-68
2022/04/06 10:32:45;;;;;;;1.60;0.57;;;;;;;;;;4966467;28;20202;-69
2022/04/06 10:35:27;;;;;;;0.60;0.60;;;;;;;;;;4968136;28;20210;-68
2022/04/06 10:38:16;;;;;;;2.03;1.63;;;;;;;;;;4966149;28;20206;-68
2022/04/06 10:41:08;;;;;;;3.47;1.20;;;;;;;;;;4966191;28;20211;-69
2022/04/06 10:43:52;;;;;;;3.17;1.47;;;;;;;;;;4967509;28;20665;-69
2022/04/06 10:46:35;;;;;;;0.10;0.10;;;;;;;;;;4967001;28;20206;-69
2022/04/06 10:49:13;;;;;;;1.33;1.23;;;;;;;;;;4966449;28;20203;-70
2022/04/06 10:51:41;;;;;;;1.00;0.83;;;;;;;;;;4968516;28;20223;-69
2022/04/06 10:54:34;;;;;;;0.50;0.50;;;;;;;;;;4965642;28;20686;-70
2022/04/06 10:57:02;;;;;;;1.63;0.33;;;;;;;;;;4966831;28;20650;-71
2022/04/06 10:59:30;;;;;;;2.60;0.90;;;;;;;;;;4966206;28;20214;-69
2022/04/06 11:02:12;;;;;;;8.87;1.60;;;;;;;;;;4965619;28;20210;-69
2022/04/06 11:04:40;;;;;;;0.70;0.50;;;;;;;;;;4966488;28;20210;-69
2022/04/06 11:07:08;;;;;;;0.43;0.43;;;;;;;;;;4965842;28;20218;-69
2022/04/06 11:12:24;;;;;;;0.30;0.30;;;;;;;;;;4966893;28;20348;-70
2022/04/06 11:14:52;;;;;;;0.40;0.40;;;;;;;;;;4966774;28;20294;-70
2022/04/06 11:17:42;;;;;;;0.27;0.27;;;;;;;;;;4965057;28;20576;-71
2022/04/06 11:20:11;;;;;;;0.33;0.33;;;;;;;;;;4960738;28;20215;-70
2022/04/06 11:22:39;;;;;;;2.83;1.43;;;;;;;;;;4966257;28;20318;-70
2022/04/06 11:25:11;;;;;;;0.20;0.20;;;;;;;;;;4966509;28;20575;-70
2022/04/06 11:27:40;;;;;;;0.37;0.37;;;;;;;;;;4966170;28;20195;-69
2022/04/06 11:30:09;;;;;;;0.40;0.40;;;;;;;;;;4967765;28;20286;-69
2022/04/06 11:32:38;;;;;;;0.80;0.70;;;;;;;;;;4965366;28;20261;-70
2022/04/06 11:35:07;;;;;;;0.17;0.17;;;;;;;;;;4965865;28;20289;-70
2022/04/06 11:37:40;;;;;;;1.37;0.70;;;;;;;;;;4965702;28;20198;-70
2022/04/06 11:40:09;;;;;;;0.80;0.40;;;;;;;;;;4965767;28;20206;-70
2022/04/06 11:42:36;;;;;;;1.30;0.50;;;;;;;;;;4965432;28;20225;-70
2022/04/06 11:45:05;;;;;;;0.10;0.10;;;;;;;;;;4965799;28;20298;-70
2022/04/06 11:47:33;;;;;;;0.97;0.80;;;;;;;;;;4965909;28;20202;-70
2022/04/06 11:50:01;;;;;;;1.40;0.30;;;;;;;;;;4965329;28;20297;-73
2022/04/06 11:52:29;;;;;;;0.30;0.30;;;;;;;;;;4966016;28;20209;-69
2022/04/06 11:54:57;;;;;;;0.63;0.50;;;;;;;;;;4965839;28;20303;-70
2022/04/06 11:57:34;;;;;;;0.50;0.33;;;;;;;;;;4964489;28;20236;-70
2022/04/06 12:00:03;;;;;;;0.77;0.47;;;;;;;;;;4965213;28;20249;-71
2022/04/06 12:02:45;;;;;;;0.50;0.50;;;;;;;;;;4965185;28;20213;-69
2022/04/06 12:05:14;;;;;;;0.20;0.10;;;;;;;;;;4964985;28;20202;-71
2022/04/06 12:07:41;;;;;;;0.67;0.67;;;;;;;;;;4966257;28;20221;-70
2022/04/06 12:10:09;;;;;;;1.37;0.70;;;;;;;;;;4964903;28;20230;-70
2022/04/06 12:12:39;;;;;;;1.10;0.63;;;;;;;;;;4965833;28;20217;-69
2022/04/06 12:15:08;;;;;;;2.60;1.03;;;;;;;;;;4963912;28;20257;-70
2022/04/06 12:17:36;;;;;;;4.67;1.03;;;;;;;;;;4964683;28;20217;-72
2022/04/06 12:20:21;;;;;;;1.30;1.20;;;;;;;;;;4964993;28;20211;-70
2022/04/06 12:23:02;;;;;;;0.10;0.10;;;;;;;;;;4965189;28;20242;-77
2022/04/06 12:25:30;;;;;;;0.93;0.87;;;;;;;;;;4964561;28;20206;-70
2022/04/06 12:28:11;;;;;;;0.57;0.57;;;;;;;;;;4963597;28;20218;-70
2022/04/06 12:30:51;;;;;;;0.40;0.40;;;;;;;;;;4963779;28;20199;-70
2022/04/06 12:33:32;;;;;;;0.47;0.43;;;;;;;;;;4964100;28;20260;-71
2022/04/06 12:36:05;;;;;;;4.13;0.50;;;;;;;;;;4964426;28;20217;-71
2022/04/06 12:38:34;;;;;;;0.67;0.67;;;;;;;;;;4964299;28;20203;-70
2022/04/06 12:41:07;;;;;;;5.50;1.10;;;;;;;;;;4963662;28;20234;-70
2022/04/06 12:43:38;;;;;;;1.20;0.83;;;;;;;;;;4964719;28;20242;-71
2022/04/06 12:46:05;;;;;;;1.57;0.83;;;;;;;;;;4963760;28;20257;-68
2022/04/06 12:48:33;;;;;;;1.20;0.70;;;;;;;;;;4963733;28;20203;-70
2022/04/06 12:51:17;;;;;;;3.23;1.53;;;;;;;;;;4963094;28;20245;-72
2022/04/06 12:53:50;;;;;;;0.37;0.10;;;;;;;;;;4965053;28;20234;-71
2022/04/06 12:56:22;;;;;;;1.60;1.50;;;;;;;;;;4964806;28;20209;-70
2022/04/06 12:59:08;;;;;;;4.90;0.73;;;;;;;;;;4964237;28;20238;-70
2022/04/06 13:01:45;;;;;;;0.30;0.30;;;;;;;;;;4963968;28;20690;-70
2022/04/06 13:04:12;;;;;;;0.63;0.40;;;;;;;;;;4965129;28;20265;-68
2022/04/06 13:06:40;;;;;;;0.20;0.20;;;;;;;;;;4964456;28;20226;-70
2022/04/06 13:09:14;;;;;;;0.70;0.47;;;;;;;;;;4964103;28;20667;-70
2022/04/06 13:11:42;;;;;;;0.87;0.80;;;;;;;;;;4964803;28;20305;-71
2022/04/06 13:14:09;;;;;;;4.30;0.57;;;;;;;;;;4964348;28;20218;-69
2022/04/06 13:16:37;;;;;;;0.50;0.50;;;;;;;;;;4963964;28;20206;-68
2022/04/06 13:19:07;;;;;;;0.60;0.60;;;;;;;;;;4964577;28;20212;-69
2022/04/06 13:21:35;;;;;;;0.20;0.20;;;;;;;;;;4964140;28;20293;-70
2022/04/06 13:24:06;;;;;;;0.90;0.50;;;;;;;;;;4964257;28;20229;-72
2022/04/06 13:26:35;;;;;;;0.60;0.53;;;;;;;;;;4967510;28;20207;-71
2022/04/06 13:29:02;;;;;;;1.30;0.67;;;;;;;;;;4968320;28;20214;-70
2022/04/06 13:31:30;;;;;;;1.40;0.50;;;;;;;;;;4967843;28;20206;-73
2022/04/06 13:33:58;;;;;;;1.10;1.00;;;;;;;;;;4968389;28;20337;-73
2022/04/06 13:36:25;;;;;;;0.40;0.23;;;;;;;;;;4967840;28;20680;-73
2022/04/06 13:38:53;;;;;;;0.60;0.60;;;;;;;;;;4967393;28;20626;-73
2022/04/06 13:41:20;;;;;;;0.30;0.20;;;;;;;;;;4967261;28;20202;-74
2022/04/06 13:43:49;;;;;;;0.00;0.00;;;;;;;;;;4967795;28;20234;-73
2022/04/06 13:46:17;;;;;;;0.53;0.50;;;;;;;;;;4968322;28;20545;-71
2022/04/06 13:48:45;;;;;;;0.30;0.30;;;;;;;;;;4967821;28;20255;-73
2022/04/06 13:51:12;;;;;;;0.40;0.40;;;;;;;;;;4966282;28;20195;-72
2022/04/06 13:53:40;;;;;;;1.03;0.73;;;;;;;;;;4966515;28;20218;-72
2022/04/06 13:56:08;;;;;;;1.30;1.00;;;;;;;;;;4966970;28;20206;-68
2022/04/06 13:58:36;;;;;;;0.63;0.63;;;;;;;;;;4967630;28;20269;-70
2022/04/06 14:01:05;;;;;;;0.17;0.17;;;;;;;;;;4972154;28;20230;-70
2022/04/06 14:03:33;;;;;;;0.30;0.30;;;;;;;;;;4974149;28;20222;-68
2022/04/06 14:06:06;;;;;;;0.87;0.83;;;;;;;;;;4987370;28;20198;-67
2022/04/06 14:08:35;;;;;;;0.10;0.10;;;;;;;;;;4981164;28;20194;-69
2022/04/06 14:11:03;;;;;;;0.20;0.20;;;;;;;;;;4975468;28;20194;-71
2022/04/06 14:13:30;;;;;;;0.30;0.30;;;;;;;;;;4975822;28;20198;-71
2022/04/06 14:15:57;;;;;;;0.70;0.70;;;;;;;;;;4975705;28;21048;-72
2022/04/06 14:18:27;;;;;;;7.23;1.30;;;;;;;;;;4972699;28;20210;-68
2022/04/06 14:20:55;;;;;;;4.17;0.97;;;;;;;;;;4985269;28;20199;-69
2022/04/06 14:23:26;;;;;;;0.63;0.40;;;;;;;;;;4984459;28;20226;-69
2022/04/06 14:25:53;;;;;;;0.67;0.67;;;;;;;;;;4980342;28;20202;-70
2022/04/06 14:28:21;;;;;;;0.87;0.87;;;;;;;;;;4971357;28;20346;-68
2022/04/06 14:30:53;;;;;;;2.83;1.33;;;;;;;;;;4974688;28;20297;-69
2022/04/06 14:33:21;;;;;;;0.83;0.83;;;;;;;;;;4975308;28;20203;-70
2022/04/06 14:35:50;;;;;;;0.27;0.27;;;;;;;;;;4975301;28;20689;-67
2022/04/06 14:38:18;;;;;;;0.30;0.30;;;;;;;;;;4972966;28;20198;-69
2022/04/06 14:40:48;;;;;;;0.23;0.23;;;;;;;;;;4965358;28;21041;-70
2022/04/06 14:43:15;;;;;;;1.20;1.03;;;;;;;;;;4975079;28;20651;-69
2022/04/06 14:45:43;;;;;;;1.23;1.10;;;;;;;;;;4974989;28;20206;-68
2022/04/06 14:48:11;;;;;;;0.70;0.70;;;;;;;;;;4975291;28;20290;-69
2022/04/06 14:50:39;;;;;;;0.40;0.40;;;;;;;;;;4974039;28;20210;-69
2022/04/06 14:53:09;;;;;;;1.20;1.03;;;;;;;;;;4973980;28;20682;-69
2022/04/06 14:55:38;;;;;;;0.47;0.47;;;;;;;;;;4975019;28;20705;-68
2022/04/06 14:58:06;;;;;;;1.03;0.93;;;;;;;;;;4974836;28;20259;-68
2022/04/06 15:00:33;;;;;;;1.13;1.03;;;;;;;;;;4973907;28;20209;-68
2022/04/06 15:03:02;;;;;;;0.93;0.60;;;;;;;;;;4974312;28;20246;-70
2022/04/06 15:05:29;;;;;;;0.53;0.53;;;;;;;;;;4974975;28;20238;-68
2022/04/06 15:07:57;;;;;;;0.23;0.23;;;;;;;;;;4971419;28;20206;-69
2022/04/06 15:10:26;;;;;;;0.40;0.40;;;;;;;;;;4974676;28;20205;-69
2022/04/06 15:12:53;;;;;;;2.00;1.33;;;;;;;;;;4965946;28;20206;-69
2022/04/06 15:15:21;;;;;;;0.73;0.73;;;;;;;;;;4969942;28;20206;-74
2022/04/06 15:17:48;;;;;;;0.27;0.27;;;;;;;;;;4974551;28;20619;-69